sensor_id;sensor_type;location;lat;lon;timestamp;P1;durP1;ratioP1;P2;durP2;ratioP2
68050;SDS011;54839;51.364;7.246;2022-08-19T00:00:35;10.17;;;9.17;;
68050;SDS011;54839;51.364;7.246;2022-08-19T00:03:01;10.13;;;9.23;;
68050;SDS011;54839;51.364;7.246;2022-08-19T00:05:27;10.40;;;9.50;;
68050;SDS011;54839;51.364;7.246;2022-08-19T00:07:53;9.50;;;8.80;;
68050;SDS011;54839;51.364;7.246;2022-08-19T00:10:19;10.37;;;9.47;;
68050;SDS011;54839;51.364;7.246;2022-08-19T00:12:45;10.73;;;9.73;;
68050;SDS011;54839;51.364;7.246;2022-08-19T00:15:11;11.20;;;10.30;;
68050;SDS011;54839;51.364;7.246;2022-08-19T00:17:40;13.70;;;9.80;;
68050;SDS011;54839;51.364;7.246;2022-08-19T00:20:08;9.73;;;9.00;;
68050;SDS011;54839;51.364;7.246;2022-08-19T00:22:37;10.23;;;9.33;;
68050;SDS011;54839;51.364;7.246;2022-08-19T00:25:03;10.67;;;9.87;;
68050;SDS011;54839;51.364;7.246;2022-08-19T00:27:30;9.90;;;9.10;;
68050;SDS011;54839;51.364;7.246;2022-08-19T00:29:55;9.83;;;8.93;;
68050;SDS011;54839;51.364;7.246;2022-08-19T00:32:21;11.10;;;9.80;;
68050;SDS011;54839;51.364;7.246;2022-08-19T00:34:47;10.70;;;9.90;;
68050;SDS011;54839;51.364;7.246;2022-08-19T00:37:12;10.63;;;9.73;;
68050;SDS011;54839;51.364;7.246;2022-08-19T00:39:38;10.70;;;9.70;;
68050;SDS011;54839;51.364;7.246;2022-08-19T00:42:04;11.73;;;10.00;;
68050;SDS011;54839;51.364;7.246;2022-08-19T00:44:31;11.70;;;10.80;;
68050;SDS011;54839;51.364;7.246;2022-08-19T00:46:57;10.17;;;9.20;;
68050;SDS011;54839;51.364;7.246;2022-08-19T00:49:35;11.67;;;10.57;;
68050;SDS011;54839;51.364;7.246;2022-08-19T00:52:07;14.00;;;9.60;;
68050;SDS011;54839;51.364;7.246;2022-08-19T00:54:39;10.30;;;9.50;;
68050;SDS011;54839;51.364;7.246;2022-08-19T00:57:06;9.80;;;9.00;;
68050;SDS011;54839;51.364;7.246;2022-08-19T00:59:35;10.67;;;9.67;;
68050;SDS011;54839;51.364;7.246;2022-08-19T01:02:03;9.90;;;9.10;;
68050;SDS011;54839;51.364;7.246;2022-08-19T01:04:29;9.60;;;8.70;;
68050;SDS011;54839;51.364;7.246;2022-08-19T01:06:55;10.23;;;9.23;;
68050;SDS011;54839;51.364;7.246;2022-08-19T01:09:22;10.30;;;9.43;;
68050;SDS011;54839;51.364;7.246;2022-08-19T01:11:47;12.50;;;9.07;;
68050;SDS011;54839;51.364;7.246;2022-08-19T01:14:13;9.90;;;9.10;;
68050;SDS011;54839;51.364;7.246;2022-08-19T01:16:40;9.90;;;9.13;;
68050;SDS011;54839;51.364;7.246;2022-08-19T01:19:09;9.67;;;8.77;;
68050;SDS011;54839;51.364;7.246;2022-08-19T01:21:52;10.80;;;9.93;;
68050;SDS011;54839;51.364;7.246;2022-08-19T01:24:27;9.40;;;8.50;;
68050;SDS011;54839;51.364;7.246;2022-08-19T01:26:53;9.70;;;8.80;;
68050;SDS011;54839;51.364;7.246;2022-08-19T01:29:19;9.93;;;9.13;;
68050;SDS011;54839;51.364;7.246;2022-08-19T01:31:45;9.00;;;8.33;;
68050;SDS011;54839;51.364;7.246;2022-08-19T01:34:10;10.27;;;9.47;;
68050;SDS011;54839;51.364;7.246;2022-08-19T01:36:37;9.73;;;8.83;;
68050;SDS011;54839;51.364;7.246;2022-08-19T01:39:08;11.13;;;10.03;;
68050;SDS011;54839;51.364;7.246;2022-08-19T01:41:36;10.50;;;9.47;;
68050;SDS011;54839;51.364;7.246;2022-08-19T01:44:04;11.60;;;10.70;;
68050;SDS011;54839;51.364;7.246;2022-08-19T01:46:31;10.93;;;9.93;;
68050;SDS011;54839;51.364;7.246;2022-08-19T01:48:57;11.40;;;10.40;;
68050;SDS011;54839;51.364;7.246;2022-08-19T01:51:23;10.60;;;9.70;;
68050;SDS011;54839;51.364;7.246;2022-08-19T01:53:49;10.17;;;9.30;;
68050;SDS011;54839;51.364;7.246;2022-08-19T01:56:16;10.53;;;9.43;;
68050;SDS011;54839;51.364;7.246;2022-08-19T01:58:47;10.30;;;9.40;;
68050;SDS011;54839;51.364;7.246;2022-08-19T02:01:16;9.47;;;8.70;;
68050;SDS011;54839;51.364;7.246;2022-08-19T02:03:42;9.20;;;8.40;;
68050;SDS011;54839;51.364;7.246;2022-08-19T02:06:08;10.80;;;9.90;;
68050;SDS011;54839;51.364;7.246;2022-08-19T02:08:34;13.33;;;9.23;;
68050;SDS011;54839;51.364;7.246;2022-08-19T02:11:02;10.97;;;9.97;;
68050;SDS011;54839;51.364;7.246;2022-08-19T02:13:28;11.70;;;10.47;;
68050;SDS011;54839;51.364;7.246;2022-08-19T02:15:54;11.57;;;10.47;;
68050;SDS011;54839;51.364;7.246;2022-08-19T02:18:19;13.47;;;10.40;;
68050;SDS011;54839;51.364;7.246;2022-08-19T02:20:45;12.13;;;11.07;;
68050;SDS011;54839;51.364;7.246;2022-08-19T02:23:12;12.07;;;10.97;;
68050;SDS011;54839;51.364;7.246;2022-08-19T02:25:39;22.73;;;12.63;;
68050;SDS011;54839;51.364;7.246;2022-08-19T02:28:05;13.57;;;12.27;;
68050;SDS011;54839;51.364;7.246;2022-08-19T02:30:31;12.67;;;11.50;;
68050;SDS011;54839;51.364;7.246;2022-08-19T02:32:57;12.90;;;11.90;;
68050;SDS011;54839;51.364;7.246;2022-08-19T02:35:23;13.80;;;11.70;;
68050;SDS011;54839;51.364;7.246;2022-08-19T02:37:49;13.00;;;12.00;;
68050;SDS011;54839;51.364;7.246;2022-08-19T02:40:33;12.17;;;10.70;;
68050;SDS011;54839;51.364;7.246;2022-08-19T02:43:01;11.40;;;10.40;;
68050;SDS011;54839;51.364;7.246;2022-08-19T02:45:32;9.97;;;9.17;;
68050;SDS011;54839;51.364;7.246;2022-08-19T02:47:59;11.80;;;10.70;;
68050;SDS011;54839;51.364;7.246;2022-08-19T02:50:24;11.30;;;10.20;;
68050;SDS011;54839;51.364;7.246;2022-08-19T02:52:50;11.90;;;10.80;;
68050;SDS011;54839;51.364;7.246;2022-08-19T02:55:16;10.47;;;9.57;;
68050;SDS011;54839;51.364;7.246;2022-08-19T02:57:41;12.07;;;9.93;;
68050;SDS011;54839;51.364;7.246;2022-08-19T03:00:07;11.63;;;10.70;;
68050;SDS011;54839;51.364;7.246;2022-08-19T03:02:37;10.53;;;9.53;;
68050;SDS011;54839;51.364;7.246;2022-08-19T03:05:03;11.87;;;10.77;;
68050;SDS011;54839;51.364;7.246;2022-08-19T03:07:29;12.27;;;11.17;;
68050;SDS011;54839;51.364;7.246;2022-08-19T03:09:55;11.00;;;10.00;;
68050;SDS011;54839;51.364;7.246;2022-08-19T03:12:21;12.77;;;11.77;;
68050;SDS011;54839;51.364;7.246;2022-08-19T03:14:46;12.50;;;11.40;;
68050;SDS011;54839;51.364;7.246;2022-08-19T03:17:12;12.47;;;11.30;;
68050;SDS011;54839;51.364;7.246;2022-08-19T03:19:38;12.40;;;11.30;;
68050;SDS011;54839;51.364;7.246;2022-08-19T03:22:03;14.77;;;13.50;;
68050;SDS011;54839;51.364;7.246;2022-08-19T03:24:29;19.70;;;17.83;;
68050;SDS011;54839;51.364;7.246;2022-08-19T03:26:56;13.10;;;11.90;;
68050;SDS011;54839;51.364;7.246;2022-08-19T03:29:23;13.03;;;11.97;;
68050;SDS011;54839;51.364;7.246;2022-08-19T03:31:50;12.70;;;11.50;;
68050;SDS011;54839;51.364;7.246;2022-08-19T03:34:20;13.07;;;11.97;;
68050;SDS011;54839;51.364;7.246;2022-08-19T03:36:51;15.10;;;13.60;;
68050;SDS011;54839;51.364;7.246;2022-08-19T03:39:19;17.97;;;15.10;;
68050;SDS011;54839;51.364;7.246;2022-08-19T03:41:46;15.97;;;14.50;;
68050;SDS011;54839;51.364;7.246;2022-08-19T03:44:14;13.97;;;12.77;;
68050;SDS011;54839;51.364;7.246;2022-08-19T03:46:42;14.47;;;13.07;;
68050;SDS011;54839;51.364;7.246;2022-08-19T03:49:08;14.60;;;13.10;;
68050;SDS011;54839;51.364;7.246;2022-08-19T03:51:35;16.73;;;15.03;;
68050;SDS011;54839;51.364;7.246;2022-08-19T03:54:04;15.60;;;13.17;;
68050;SDS011;54839;51.364;7.246;2022-08-19T03:56:32;13.30;;;12.00;;
68050;SDS011;54839;51.364;7.246;2022-08-19T03:58:59;14.00;;;12.70;;
68050;SDS011;54839;51.364;7.246;2022-08-19T04:01:25;12.80;;;11.60;;
68050;SDS011;54839;51.364;7.246;2022-08-19T04:03:53;14.50;;;11.87;;
68050;SDS011;54839;51.364;7.246;2022-08-19T04:06:25;13.43;;;12.27;;
68050;SDS011;54839;51.364;7.246;2022-08-19T04:08:53;12.83;;;11.57;;
68050;SDS011;54839;51.364;7.246;2022-08-19T04:11:22;12.07;;;10.77;;
68050;SDS011;54839;51.364;7.246;2022-08-19T04:13:49;13.67;;;12.37;;
68050;SDS011;54839;51.364;7.246;2022-08-19T04:16:18;13.93;;;12.73;;
68050;SDS011;54839;51.364;7.246;2022-08-19T04:18:45;11.90;;;10.90;;
68050;SDS011;54839;51.364;7.246;2022-08-19T04:21:15;13.67;;;12.33;;
68050;SDS011;54839;51.364;7.246;2022-08-19T04:23:42;14.83;;;12.73;;
68050;SDS011;54839;51.364;7.246;2022-08-19T04:26:11;14.87;;;13.50;;
68050;SDS011;54839;51.364;7.246;2022-08-19T04:28:39;15.20;;;13.80;;
68050;SDS011;54839;51.364;7.246;2022-08-19T04:31:05;14.30;;;13.00;;
68050;SDS011;54839;51.364;7.246;2022-08-19T04:33:30;16.00;;;14.30;;
68050;SDS011;54839;51.364;7.246;2022-08-19T04:35:56;14.93;;;13.43;;
68050;SDS011;54839;51.364;7.246;2022-08-19T04:38:23;16.90;;;15.40;;
68050;SDS011;54839;51.364;7.246;2022-08-19T04:40:49;15.90;;;14.40;;
68050;SDS011;54839;51.364;7.246;2022-08-19T04:43:35;16.03;;;14.50;;
68050;SDS011;54839;51.364;7.246;2022-08-19T04:46:06;15.70;;;14.10;;
68050;SDS011;54839;51.364;7.246;2022-08-19T04:48:33;14.40;;;13.20;;
68050;SDS011;54839;51.364;7.246;2022-08-19T04:50:59;14.47;;;13.17;;
68050;SDS011;54839;51.364;7.246;2022-08-19T04:53:28;14.20;;;12.37;;
68050;SDS011;54839;51.364;7.246;2022-08-19T04:55:56;17.60;;;15.90;;
68050;SDS011;54839;51.364;7.246;2022-08-19T04:58:24;17.53;;;14.40;;
68050;SDS011;54839;51.364;7.246;2022-08-19T05:00:51;15.20;;;13.87;;
68050;SDS011;54839;51.364;7.246;2022-08-19T05:03:17;20.47;;;14.40;;
68050;SDS011;54839;51.364;7.246;2022-08-19T05:05:44;16.00;;;13.77;;
68050;SDS011;54839;51.364;7.246;2022-08-19T05:08:13;17.83;;;12.63;;
68050;SDS011;54839;51.364;7.246;2022-08-19T05:10:44;14.03;;;12.73;;
68050;SDS011;54839;51.364;7.246;2022-08-19T05:13:16;16.37;;;12.40;;
68050;SDS011;54839;51.364;7.246;2022-08-19T05:15:43;14.13;;;12.20;;
68050;SDS011;54839;51.364;7.246;2022-08-19T05:18:09;13.07;;;11.90;;
68050;SDS011;54839;51.364;7.246;2022-08-19T05:20:53;14.47;;;12.97;;
68050;SDS011;54839;51.364;7.246;2022-08-19T05:23:37;17.23;;;13.80;;
68050;SDS011;54839;51.364;7.246;2022-08-19T05:26:03;17.67;;;12.77;;
68050;SDS011;54839;51.364;7.246;2022-08-19T05:28:29;15.13;;;13.33;;
68050;SDS011;54839;51.364;7.246;2022-08-19T05:30:55;18.90;;;12.70;;
68050;SDS011;54839;51.364;7.246;2022-08-19T05:33:21;18.10;;;16.20;;
68050;SDS011;54839;51.364;7.246;2022-08-19T05:35:48;19.43;;;14.47;;
68050;SDS011;54839;51.364;7.246;2022-08-19T05:38:14;17.33;;;14.73;;
68050;SDS011;54839;51.364;7.246;2022-08-19T05:40:41;16.67;;;14.87;;
68050;SDS011;54839;51.364;7.246;2022-08-19T05:43:10;21.43;;;15.73;;
68050;SDS011;54839;51.364;7.246;2022-08-19T05:45:39;18.73;;;13.60;;
68050;SDS011;54839;51.364;7.246;2022-08-19T05:48:07;31.47;;;15.97;;
68050;SDS011;54839;51.364;7.246;2022-08-19T05:50:35;23.00;;;20.10;;
68050;SDS011;54839;51.364;7.246;2022-08-19T05:53:02;23.43;;;16.07;;
68050;SDS011;54839;51.364;7.246;2022-08-19T05:55:27;24.10;;;18.13;;
68050;SDS011;54839;51.364;7.246;2022-08-19T05:57:53;12.43;;;9.30;;
68050;SDS011;54839;51.364;7.246;2022-08-19T06:00:19;20.93;;;13.90;;
68050;SDS011;54839;51.364;7.246;2022-08-19T06:02:44;20.20;;;14.23;;
68050;SDS011;54839;51.364;7.246;2022-08-19T06:05:10;18.40;;;14.77;;
68050;SDS011;54839;51.364;7.246;2022-08-19T06:07:36;38.83;;;16.30;;
68050;SDS011;54839;51.364;7.246;2022-08-19T06:10:07;25.03;;;14.30;;
68050;SDS011;54839;51.364;7.246;2022-08-19T06:12:34;22.70;;;15.17;;
68050;SDS011;54839;51.364;7.246;2022-08-19T06:15:05;18.73;;;12.93;;
68050;SDS011;54839;51.364;7.246;2022-08-19T06:17:35;21.77;;;16.67;;
68050;SDS011;54839;51.364;7.246;2022-08-19T06:20:05;20.50;;;17.50;;
68050;SDS011;54839;51.364;7.246;2022-08-19T06:22:37;21.53;;;18.43;;
68050;SDS011;54839;51.364;7.246;2022-08-19T06:25:04;25.00;;;20.17;;
68050;SDS011;54839;51.364;7.246;2022-08-19T06:27:30;29.23;;;20.07;;
68050;SDS011;54839;51.364;7.246;2022-08-19T06:29:57;25.13;;;21.90;;
68050;SDS011;54839;51.364;7.246;2022-08-19T06:32:22;26.13;;;20.10;;
68050;SDS011;54839;51.364;7.246;2022-08-19T06:34:48;23.97;;;21.47;;
68050;SDS011;54839;51.364;7.246;2022-08-19T06:37:13;26.60;;;23.63;;
68050;SDS011;54839;51.364;7.246;2022-08-19T06:39:40;27.40;;;24.70;;
68050;SDS011;54839;51.364;7.246;2022-08-19T06:42:07;26.00;;;23.20;;
68050;SDS011;54839;51.364;7.246;2022-08-19T06:44:36;30.57;;;23.87;;
68050;SDS011;54839;51.364;7.246;2022-08-19T06:47:05;27.37;;;24.63;;
68050;SDS011;54839;51.364;7.246;2022-08-19T06:49:32;44.37;;;31.63;;
68050;SDS011;54839;51.364;7.246;2022-08-19T06:51:58;30.67;;;24.87;;
68050;SDS011;54839;51.364;7.246;2022-08-19T06:54:24;30.70;;;27.50;;
68050;SDS011;54839;51.364;7.246;2022-08-19T06:56:51;27.77;;;25.17;;
68050;SDS011;54839;51.364;7.246;2022-08-19T06:59:18;30.73;;;25.23;;
68050;SDS011;54839;51.364;7.246;2022-08-19T07:01:46;27.53;;;24.77;;
68050;SDS011;54839;51.364;7.246;2022-08-19T07:04:14;27.43;;;24.70;;
68050;SDS011;54839;51.364;7.246;2022-08-19T07:06:41;27.43;;;24.23;;
68050;SDS011;54839;51.364;7.246;2022-08-19T07:09:08;30.90;;;24.13;;
68050;SDS011;54839;51.364;7.246;2022-08-19T07:11:34;30.93;;;25.33;;
68050;SDS011;54839;51.364;7.246;2022-08-19T07:14:00;28.10;;;25.10;;
68050;SDS011;54839;51.364;7.246;2022-08-19T07:16:27;27.77;;;24.83;;
68050;SDS011;54839;51.364;7.246;2022-08-19T07:18:53;28.30;;;25.00;;
68050;SDS011;54839;51.364;7.246;2022-08-19T07:21:23;29.00;;;25.67;;
68050;SDS011;54839;51.364;7.246;2022-08-19T07:23:52;26.37;;;22.10;;
68050;SDS011;54839;51.364;7.246;2022-08-19T07:26:20;24.60;;;21.60;;
68050;SDS011;54839;51.364;7.246;2022-08-19T07:28:48;29.17;;;23.70;;
68050;SDS011;54839;51.364;7.246;2022-08-19T07:31:21;30.27;;;22.03;;
68050;SDS011;54839;51.364;7.246;2022-08-19T07:33:49;24.57;;;21.77;;
68050;SDS011;54839;51.364;7.246;2022-08-19T07:36:18;25.23;;;22.73;;
68050;SDS011;54839;51.364;7.246;2022-08-19T07:38:47;23.53;;;21.13;;
68050;SDS011;54839;51.364;7.246;2022-08-19T07:41:16;21.23;;;19.00;;
68050;SDS011;54839;51.364;7.246;2022-08-19T07:43:44;25.20;;;19.40;;
68050;SDS011;54839;51.364;7.246;2022-08-19T07:46:10;22.03;;;19.70;;
68050;SDS011;54839;51.364;7.246;2022-08-19T07:48:38;22.27;;;19.93;;
68050;SDS011;54839;51.364;7.246;2022-08-19T07:51:06;21.43;;;19.20;;
68050;SDS011;54839;51.364;7.246;2022-08-19T07:53:33;20.97;;;18.77;;
68050;SDS011;54839;51.364;7.246;2022-08-19T07:56:00;21.30;;;18.43;;
68050;SDS011;54839;51.364;7.246;2022-08-19T07:58:30;20.27;;;17.40;;
68050;SDS011;54839;51.364;7.246;2022-08-19T08:00:58;19.17;;;17.27;;
68050;SDS011;54839;51.364;7.246;2022-08-19T08:03:26;20.60;;;17.50;;
68050;SDS011;54839;51.364;7.246;2022-08-19T08:06:12;19.87;;;17.90;;
68050;SDS011;54839;51.364;7.246;2022-08-19T08:08:57;20.00;;;17.70;;
68050;SDS011;54839;51.364;7.246;2022-08-19T08:11:43;23.27;;;19.60;;
68050;SDS011;54839;51.364;7.246;2022-08-19T08:14:14;28.23;;;20.50;;
68050;SDS011;54839;51.364;7.246;2022-08-19T08:16:46;25.90;;;23.20;;
68050;SDS011;54839;51.364;7.246;2022-08-19T08:19:12;23.13;;;20.80;;
68050;SDS011;54839;51.364;7.246;2022-08-19T08:21:40;23.50;;;21.10;;
68050;SDS011;54839;51.364;7.246;2022-08-19T08:24:06;24.30;;;21.80;;
68050;SDS011;54839;51.364;7.246;2022-08-19T08:26:32;24.50;;;22.10;;
68050;SDS011;54839;51.364;7.246;2022-08-19T08:28:58;25.20;;;22.77;;
68050;SDS011;54839;51.364;7.246;2022-08-19T08:31:23;21.57;;;19.40;;
68050;SDS011;54839;51.364;7.246;2022-08-19T08:33:49;22.97;;;20.50;;
68050;SDS011;54839;51.364;7.246;2022-08-19T08:36:15;24.90;;;22.40;;
68050;SDS011;54839;51.364;7.246;2022-08-19T08:38:42;24.53;;;22.20;;
68050;SDS011;54839;51.364;7.246;2022-08-19T08:41:17;24.90;;;22.30;;
68050;SDS011;54839;51.364;7.246;2022-08-19T08:43:56;27.00;;;24.33;;
68050;SDS011;54839;51.364;7.246;2022-08-19T08:46:35;28.03;;;25.23;;
68050;SDS011;54839;51.364;7.246;2022-08-19T08:51:59;30.37;;;27.13;;
68050;SDS011;54839;51.364;7.246;2022-08-19T08:54:30;28.03;;;25.47;;
68050;SDS011;54839;51.364;7.246;2022-08-19T08:56:59;24.80;;;22.50;;
68050;SDS011;54839;51.364;7.246;2022-08-19T08:59:29;24.97;;;22.43;;
68050;SDS011;54839;51.364;7.246;2022-08-19T09:01:59;25.37;;;22.83;;
68050;SDS011;54839;51.364;7.246;2022-08-19T09:04:24;24.23;;;21.80;;
68050;SDS011;54839;51.364;7.246;2022-08-19T09:09:51;28.73;;;26.13;;
68050;SDS011;54839;51.364;7.246;2022-08-19T09:15:04;22.27;;;20.00;;
68050;SDS011;54839;51.364;7.246;2022-08-19T09:17:35;24.90;;;22.30;;
68050;SDS011;54839;51.364;7.246;2022-08-19T09:22:33;23.20;;;18.63;;
68050;SDS011;54839;51.364;7.246;2022-08-19T09:25:00;22.90;;;20.70;;
68050;SDS011;54839;51.364;7.246;2022-08-19T09:27:28;22.90;;;20.73;;
68050;SDS011;54839;51.364;7.246;2022-08-19T09:29:54;27.63;;;23.60;;
68050;SDS011;54839;51.364;7.246;2022-08-19T09:32:21;27.87;;;25.17;;
68050;SDS011;54839;51.364;7.246;2022-08-19T09:34:47;29.67;;;26.57;;
68050;SDS011;54839;51.364;7.246;2022-08-19T09:37:19;27.17;;;24.53;;
68050;SDS011;54839;51.364;7.246;2022-08-19T09:39:45;30.00;;;26.83;;
68050;SDS011;54839;51.364;7.246;2022-08-19T09:42:11;29.43;;;26.40;;
68050;SDS011;54839;51.364;7.246;2022-08-19T09:44:39;32.17;;;29.37;;
68050;SDS011;54839;51.364;7.246;2022-08-19T09:47:05;30.97;;;27.77;;
68050;SDS011;54839;51.364;7.246;2022-08-19T09:49:32;32.17;;;29.17;;
68050;SDS011;54839;51.364;7.246;2022-08-19T09:51:58;28.40;;;25.60;;
68050;SDS011;54839;51.364;7.246;2022-08-19T09:54:25;28.90;;;26.33;;
68050;SDS011;54839;51.364;7.246;2022-08-19T09:56:52;28.07;;;25.57;;
68050;SDS011;54839;51.364;7.246;2022-08-19T09:59:18;27.60;;;24.90;;
68050;SDS011;54839;51.364;7.246;2022-08-19T10:01:43;28.87;;;25.90;;
68050;SDS011;54839;51.364;7.246;2022-08-19T10:04:09;26.53;;;23.80;;
68050;SDS011;54839;51.364;7.246;2022-08-19T10:06:35;28.43;;;25.77;;
68050;SDS011;54839;51.364;7.246;2022-08-19T10:09:04;29.50;;;26.37;;
68050;SDS011;54839;51.364;7.246;2022-08-19T10:11:33;25.27;;;22.77;;
68050;SDS011;54839;51.364;7.246;2022-08-19T10:14:00;25.23;;;22.83;;
68050;SDS011;54839;51.364;7.246;2022-08-19T10:16:26;22.60;;;20.23;;
68050;SDS011;54839;51.364;7.246;2022-08-19T10:18:53;22.50;;;20.37;;
68050;SDS011;54839;51.364;7.246;2022-08-19T10:23:47;22.83;;;20.43;;
68050;SDS011;54839;51.364;7.246;2022-08-19T10:26:16;18.77;;;16.87;;
68050;SDS011;54839;51.364;7.246;2022-08-19T10:28:44;20.70;;;18.70;;
68050;SDS011;54839;51.364;7.246;2022-08-19T10:31:11;20.43;;;18.53;;
68050;SDS011;54839;51.364;7.246;2022-08-19T10:33:40;19.87;;;18.03;;
68050;SDS011;54839;51.364;7.246;2022-08-19T10:36:07;15.40;;;14.10;;
68050;SDS011;54839;51.364;7.246;2022-08-19T10:38:40;18.60;;;16.90;;
68050;SDS011;54839;51.364;7.246;2022-08-19T10:41:07;17.33;;;15.73;;
68050;SDS011;54839;51.364;7.246;2022-08-19T10:43:34;16.63;;;15.27;;
68050;SDS011;54839;51.364;7.246;2022-08-19T10:46:03;19.33;;;17.27;;
68050;SDS011;54839;51.364;7.246;2022-08-19T10:48:30;19.43;;;17.63;;
68050;SDS011;54839;51.364;7.246;2022-08-19T10:50:57;19.60;;;17.63;;
68050;SDS011;54839;51.364;7.246;2022-08-19T10:53:41;19.57;;;17.57;;
68050;SDS011;54839;51.364;7.246;2022-08-19T10:56:07;17.77;;;16.07;;
68050;SDS011;54839;51.364;7.246;2022-08-19T10:58:51;18.70;;;16.90;;
68050;SDS011;54839;51.364;7.246;2022-08-19T11:01:17;19.53;;;17.87;;
68050;SDS011;54839;51.364;7.246;2022-08-19T11:03:42;19.50;;;17.60;;
68050;SDS011;54839;51.364;7.246;2022-08-19T11:06:10;21.33;;;19.17;;
68050;SDS011;54839;51.364;7.246;2022-08-19T11:08:36;17.93;;;16.43;;
68050;SDS011;54839;51.364;7.246;2022-08-19T11:11:02;17.80;;;16.13;;
68050;SDS011;54839;51.364;7.246;2022-08-19T11:13:29;17.80;;;16.10;;
68050;SDS011;54839;51.364;7.246;2022-08-19T11:16:03;20.50;;;18.70;;
68050;SDS011;54839;51.364;7.246;2022-08-19T11:18:31;18.17;;;16.57;;
68050;SDS011;54839;51.364;7.246;2022-08-19T11:23:45;18.87;;;17.20;;
68050;SDS011;54839;51.364;7.246;2022-08-19T11:26:12;21.33;;;18.53;;
68050;SDS011;54839;51.364;7.246;2022-08-19T11:28:38;20.03;;;18.00;;
68050;SDS011;54839;51.364;7.246;2022-08-19T11:31:08;18.03;;;16.40;;
68050;SDS011;54839;51.364;7.246;2022-08-19T11:33:38;20.67;;;18.70;;
68050;SDS011;54839;51.364;7.246;2022-08-19T11:36:04;20.10;;;17.40;;
68050;SDS011;54839;51.364;7.246;2022-08-19T11:38:30;22.70;;;20.70;;
68050;SDS011;54839;51.364;7.246;2022-08-19T11:40:56;20.70;;;18.63;;
68050;SDS011;54839;51.364;7.246;2022-08-19T11:43:23;20.87;;;19.13;;
68050;SDS011;54839;51.364;7.246;2022-08-19T11:45:51;19.03;;;17.53;;
68050;SDS011;54839;51.364;7.246;2022-08-19T11:48:21;20.23;;;18.63;;
68050;SDS011;54839;51.364;7.246;2022-08-19T11:50:49;20.07;;;18.37;;
68050;SDS011;54839;51.364;7.246;2022-08-19T11:53:21;19.43;;;17.83;;
68050;SDS011;54839;51.364;7.246;2022-08-19T11:55:47;18.40;;;16.77;;
68050;SDS011;54839;51.364;7.246;2022-08-19T11:58:14;21.30;;;19.50;;
68050;SDS011;54839;51.364;7.246;2022-08-19T12:00:41;23.47;;;21.30;;
68050;SDS011;54839;51.364;7.246;2022-08-19T12:03:09;23.37;;;21.03;;
68050;SDS011;54839;51.364;7.246;2022-08-19T12:05:37;23.13;;;20.93;;
68050;SDS011;54839;51.364;7.246;2022-08-19T12:08:04;25.43;;;23.03;;
68050;SDS011;54839;51.364;7.246;2022-08-19T12:10:31;22.37;;;20.40;;
68050;SDS011;54839;51.364;7.246;2022-08-19T12:12:57;22.43;;;20.23;;
68050;SDS011;54839;51.364;7.246;2022-08-19T12:15:23;21.73;;;19.63;;
68050;SDS011;54839;51.364;7.246;2022-08-19T12:17:49;19.50;;;17.50;;
68050;SDS011;54839;51.364;7.246;2022-08-19T12:20:14;20.47;;;18.47;;
68050;SDS011;54839;51.364;7.246;2022-08-19T12:22:42;17.57;;;15.97;;
68050;SDS011;54839;51.364;7.246;2022-08-19T12:25:10;16.63;;;15.20;;
68050;SDS011;54839;51.364;7.246;2022-08-19T12:27:36;21.83;;;18.43;;
68050;SDS011;54839;51.364;7.246;2022-08-19T12:30:03;15.97;;;14.50;;
68050;SDS011;54839;51.364;7.246;2022-08-19T12:32:29;17.50;;;16.20;;
68050;SDS011;54839;51.364;7.246;2022-08-19T12:34:54;14.47;;;13.27;;
68050;SDS011;54839;51.364;7.246;2022-08-19T12:37:20;15.33;;;13.87;;
68050;SDS011;54839;51.364;7.246;2022-08-19T12:39:46;14.27;;;12.97;;
68050;SDS011;54839;51.364;7.246;2022-08-19T12:42:12;14.33;;;13.20;;
68050;SDS011;54839;51.364;7.246;2022-08-19T12:44:39;12.67;;;11.70;;
68050;SDS011;54839;51.364;7.246;2022-08-19T12:47:06;10.97;;;9.87;;
68050;SDS011;54839;51.364;7.246;2022-08-19T12:49:33;14.63;;;13.43;;
68050;SDS011;54839;51.364;7.246;2022-08-19T12:51:59;11.70;;;10.70;;
68050;SDS011;54839;51.364;7.246;2022-08-19T12:54:26;11.27;;;9.57;;
68050;SDS011;54839;51.364;7.246;2022-08-19T12:56:52;9.43;;;8.53;;
68050;SDS011;54839;51.364;7.246;2022-08-19T12:59:18;10.70;;;9.80;;
68050;SDS011;54839;51.364;7.246;2022-08-19T13:01:44;10.00;;;9.07;;
68050;SDS011;54839;51.364;7.246;2022-08-19T13:04:10;8.70;;;7.80;;
68050;SDS011;54839;51.364;7.246;2022-08-19T13:06:36;11.00;;;9.87;;
68050;SDS011;54839;51.364;7.246;2022-08-19T13:09:02;8.93;;;7.40;;
68050;SDS011;54839;51.364;7.246;2022-08-19T13:11:29;8.57;;;7.67;;
68050;SDS011;54839;51.364;7.246;2022-08-19T13:13:57;8.30;;;7.50;;
68050;SDS011;54839;51.364;7.246;2022-08-19T13:16:23;9.50;;;8.80;;
68050;SDS011;54839;51.364;7.246;2022-08-19T13:18:50;7.20;;;6.70;;
68050;SDS011;54839;51.364;7.246;2022-08-19T13:21:19;8.57;;;7.97;;
68050;SDS011;54839;51.364;7.246;2022-08-19T13:23:46;8.03;;;7.27;;
68050;SDS011;54839;51.364;7.246;2022-08-19T13:26:12;8.07;;;7.47;;
68050;SDS011;54839;51.364;7.246;2022-08-19T13:28:39;11.70;;;8.30;;
68050;SDS011;54839;51.364;7.246;2022-08-19T13:31:25;8.00;;;7.40;;
68050;SDS011;54839;51.364;7.246;2022-08-19T13:34:12;7.00;;;6.50;;
68050;SDS011;54839;51.364;7.246;2022-08-19T13:36:38;8.00;;;7.30;;
68050;SDS011;54839;51.364;7.246;2022-08-19T13:39:05;8.63;;;7.93;;
68050;SDS011;54839;51.364;7.246;2022-08-19T13:41:32;7.97;;;7.47;;
68050;SDS011;54839;51.364;7.246;2022-08-19T13:43:59;9.07;;;8.27;;
68050;SDS011;54839;51.364;7.246;2022-08-19T13:46:25;8.03;;;7.13;;
68050;SDS011;54839;51.364;7.246;2022-08-19T13:48:52;6.93;;;6.43;;
68050;SDS011;54839;51.364;7.246;2022-08-19T13:51:18;9.13;;;7.77;;
68050;SDS011;54839;51.364;7.246;2022-08-19T13:53:44;7.77;;;6.23;;
68050;SDS011;54839;51.364;7.246;2022-08-19T13:56:11;7.87;;;6.83;;
68050;SDS011;54839;51.364;7.246;2022-08-19T13:58:38;7.43;;;6.73;;
68050;SDS011;54839;51.364;7.246;2022-08-19T14:01:04;7.00;;;6.40;;
68050;SDS011;54839;51.364;7.246;2022-08-19T14:03:31;6.70;;;6.10;;
68050;SDS011;54839;51.364;7.246;2022-08-19T14:05:58;6.03;;;5.63;;
68050;SDS011;54839;51.364;7.246;2022-08-19T14:08:24;6.67;;;5.80;;
68050;SDS011;54839;51.364;7.246;2022-08-19T14:10:52;6.43;;;5.67;;
68050;SDS011;54839;51.364;7.246;2022-08-19T14:13:19;7.50;;;7.00;;
68050;SDS011;54839;51.364;7.246;2022-08-19T14:15:46;7.63;;;7.13;;
68050;SDS011;54839;51.364;7.246;2022-08-19T14:18:12;7.43;;;6.83;;
68050;SDS011;54839;51.364;7.246;2022-08-19T14:20:38;8.07;;;7.43;;
68050;SDS011;54839;51.364;7.246;2022-08-19T14:23:04;7.70;;;7.00;;
68050;SDS011;54839;51.364;7.246;2022-08-19T14:25:31;8.00;;;7.30;;
68050;SDS011;54839;51.364;7.246;2022-08-19T14:27:58;6.87;;;6.20;;
68050;SDS011;54839;51.364;7.246;2022-08-19T14:30:27;6.83;;;6.33;;
68050;SDS011;54839;51.364;7.246;2022-08-19T14:32:59;6.57;;;6.00;;
68050;SDS011;54839;51.364;7.246;2022-08-19T14:35:27;6.00;;;5.50;;
68050;SDS011;54839;51.364;7.246;2022-08-19T14:37:54;5.07;;;4.67;;
68050;SDS011;54839;51.364;7.246;2022-08-19T14:40:21;5.93;;;5.50;;
68050;SDS011;54839;51.364;7.246;2022-08-19T14:42:51;6.63;;;6.03;;
68050;SDS011;54839;51.364;7.246;2022-08-19T14:45:20;5.77;;;5.27;;
68050;SDS011;54839;51.364;7.246;2022-08-19T14:47:46;6.13;;;5.63;;